Time;durP1;ratioP1;P1;durP2;ratioP2;P2;SDS_P1;SDS_P2;PMS_P1;PMS_P2;Temp;Humidity;BMP_temperature;BMP_pressure;BME280_temperature;BME280_humidity;BME280_pressure;Samples;Min_cycle;Max_cycle;Signal;HPM_P1;HPM_P2
2022/04/07 05:02:06;;;;;;;;;2.00;2.00;;;;;12.15;57.21;99028.63;5116977;23;45543;-50
2022/04/07 05:04:31;;;;;;;;;2.25;2.00;;;;;12.15;57.40;99028.63;5021131;28;45341;-51
2022/04/07 05:06:57;;;;;;;;;2.00;2.00;;;;;12.21;57.21;99014.34;5021090;28;45258;-50
2022/04/07 05:09:23;;;;;;;;;2.75;2.75;;;;;12.18;57.34;99039.03;5020374;28;45576;-51
2022/04/07 05:11:48;;;;;;;;;3.00;3.00;;;;;12.21;56.73;99022.25;5006345;28;45580;-48
2022/04/07 05:14:14;;;;;;;;;3.00;2.00;;;;;12.22;55.98;99029.22;4984334;28;45767;-50
2022/04/07 05:16:39;;;;;;;;;2.25;1.25;;;;;12.22;56.95;99005.53;5014391;28;45632;-52
2022/04/07 05:19:04;;;;;;;;;4.50;3.25;;;;;12.24;57.13;99033.50;5021876;28;45441;-49
2022/04/07 05:21:30;;;;;;;;;4.50;3.00;;;;;12.26;57.08;99009.69;5021765;28;45154;-48
2022/04/07 05:23:55;;;;;;;;;2.25;1.50;;;;;12.31;57.10;98994.53;5002912;28;46394;-51
2022/04/07 05:26:20;;;;;;;;;2.00;2.00;;;;;12.31;57.62;98979.59;4992481;28;45496;-49
2022/04/07 05:28:46;;;;;;;;;2.00;2.00;;;;;12.33;57.70;98998.78;5010807;28;45470;-52
2022/04/07 05:31:11;;;;;;;;;2.50;1.00;;;;;12.35;57.34;98994.31;5007347;28;46089;-48
2022/04/07 05:33:37;;;;;;;;;6.50;4.00;;;;;12.40;55.83;99007.25;5002637;28;45498;-46
2022/04/07 05:36:02;;;;;;;;;2.50;2.00;;;;;12.41;57.17;98976.50;5002453;28;45460;-50
2022/04/07 05:38:28;;;;;;;;;2.00;2.00;;;;;12.43;56.77;98982.53;5000599;28;45511;-52
2022/04/07 05:40:53;;;;;;;;;4.00;4.00;;;;;12.43;56.10;98967.59;5003701;28;45293;-53
2022/04/07 05:43:19;;;;;;;;;3.00;3.00;;;;;12.43;57.20;98978.13;5011961;28;45502;-49
2022/04/07 05:45:45;;;;;;;;;4.00;3.00;;;;;12.45;57.18;98962.22;5001553;28;45468;-49
2022/04/07 05:48:12;;;;;;;;;2.25;1.75;;;;;12.43;57.23;98946.50;5007292;28;45344;-49
2022/04/07 05:50:38;;;;;;;;;2.00;2.00;;;;;12.49;57.29;98953.22;5009564;28;46496;-56
2022/04/07 05:53:06;;;;;;;;;4.00;3.00;;;;;12.51;56.68;98959.28;5008559;28;45338;-55
2022/04/07 05:55:31;;;;;;;;;4.00;2.75;;;;;12.54;56.95;98927.53;5009545;28;45291;-52
2022/04/07 05:58:01;;;;;;;;;3.50;2.25;;;;;12.58;56.53;98944.88;5003695;28;45298;-60
2022/04/07 06:00:27;;;;;;;;;4.00;4.00;;;;;12.58;56.77;98960.69;5010123;28;45375;-56
2022/04/07 06:02:52;;;;;;;;;2.50;1.75;;;;;12.59;56.86;98936.06;5007045;28;45217;-56
2022/04/07 06:05:18;;;;;;;;;4.00;4.00;;;;;12.63;56.37;98936.75;5010344;28;45519;-55
2022/04/07 06:07:45;;;;;;;;;2.50;2.50;;;;;12.58;56.26;98939.63;5007035;28;45393;-56
2022/04/07 06:10:10;;;;;;;;;3.50;1.75;;;;;12.67;55.30;98927.75;5008303;28;47370;-56
2022/04/07 06:12:36;;;;;;;;;3.75;3.00;;;;;12.65;56.34;98935.75;5005581;28;45321;-56
2022/04/07 06:15:01;;;;;;;;;4.50;3.50;;;;;12.66;56.17;98953.22;5010259;28;45382;-53
2022/04/07 06:17:39;;;;;;;;;3.25;2.00;;;;;12.68;55.51;98943.47;5005996;28;45473;-57
2022/04/07 06:20:10;;;;;;;;;4.50;3.75;;;;;12.74;54.77;98965.16;5010353;28;45256;-55
2022/04/07 06:22:35;;;;;;;;;1.00;1.00;;;;;12.71;54.85;98944.25;5005861;28;45203;-60
2022/04/07 06:25:01;;;;;;;;;4.00;2.50;;;;;12.77;55.28;98949.22;5003602;28;45341;-57
2022/04/07 06:27:33;;;;;;;;;3.75;3.75;;;;;12.72;55.67;98922.25;5003687;28;45424;-57
2022/04/07 06:29:59;;;;;;;;;2.00;2.00;;;;;12.75;55.60;98936.09;5026635;28;47360;-60
2022/04/07 06:32:24;;;;;;;;;3.50;3.50;;;;;12.72;55.33;98940.69;5016937;28;45222;-49
2022/04/07 06:34:49;;;;;;;;;5.75;2.00;;;;;12.76;55.35;98940.44;5006982;28;45307;-51
2022/04/07 06:37:14;;;;;;;;;3.75;3.75;;;;;12.78;55.35;98929.81;5019055;28;45420;-52
2022/04/07 06:39:40;;;;;;;;;3.00;3.00;;;;;12.78;55.47;98930.69;5019075;28;47310;-52
2022/04/07 06:42:05;;;;;;;;;3.50;2.00;;;;;12.78;55.97;98925.41;5020736;28;45219;-52
2022/04/07 06:44:31;;;;;;;;;2.50;0.00;;;;;12.80;55.99;98925.31;5008734;28;45265;-52
2022/04/07 06:46:56;;;;;;;;;3.75;3.50;;;;;12.80;55.33;98901.59;5018241;28;45360;-52
2022/04/07 06:49:21;;;;;;;;;2.75;2.75;;;;;12.83;56.35;98904.94;5020697;28;46237;-52
2022/04/07 06:51:47;;;;;;;;;3.00;3.00;;;;;12.86;55.57;98929.44;5020372;28;45329;-52
2022/04/07 06:54:12;;;;;;;;;2.75;2.00;;;;;12.83;56.16;98912.00;5020337;28;45504;-52
2022/04/07 06:56:37;;;;;;;;;2.00;2.00;;;;;12.90;55.41;98963.44;5020312;28;45393;-52
2022/04/07 06:59:03;;;;;;;;;1.00;1.00;;;;;12.90;54.94;98925.69;5011457;28;45321;-47
2022/04/07 07:01:28;;;;;;;;;1.00;0.00;;;;;12.87;54.90;98926.72;5010285;28;45959;-50
2022/04/07 07:03:53;;;;;;;;;1.75;0.00;;;;;12.82;55.80;98897.09;5020553;28;45411;-49
2022/04/07 07:06:19;;;;;;;;;1.75;1.00;;;;;12.83;55.70;98917.25;5020153;28;45320;-48
2022/04/07 07:08:45;;;;;;;;;2.00;2.00;;;;;12.82;54.85;98916.41;5020235;28;46105;-49
2022/04/07 07:11:11;;;;;;;;;1.00;1.00;;;;;12.79;56.53;98908.66;5019797;28;45340;-51
2022/04/07 07:13:37;;;;;;;;;2.00;1.25;;;;;12.84;56.26;98916.31;5019088;28;45288;-51
2022/04/07 07:16:03;;;;;;;;;1.00;1.00;;;;;12.80;56.27;98906.88;5020144;28;45585;-51
2022/04/07 07:18:28;;;;;;;;;2.50;1.25;;;;;12.81;55.81;98913.84;5019954;28;46841;-52
2022/04/07 07:20:54;;;;;;;;;2.75;1.75;;;;;12.77;56.97;98912.31;5020102;28;45249;-52
2022/04/07 07:23:19;;;;;;;;;2.00;2.00;;;;;12.77;56.07;98918.41;5013907;28;45829;-51
2022/04/07 07:25:45;;;;;;;;;2.00;2.00;;;;;12.78;56.70;98904.31;5017546;28;45460;-49
2022/04/07 07:28:10;;;;;;;;;0.75;0.75;;;;;12.80;56.22;98893.69;5004521;28;46120;-48
2022/04/07 07:30:36;;;;;;;;;0.50;0.50;;;;;12.80;56.92;98891.06;5003845;28;45373;-49
2022/04/07 07:33:02;;;;;;;;;1.00;1.00;;;;;12.83;55.69;98894.38;5014915;28;45460;-52
2022/04/07 07:35:28;;;;;;;;;0.00;0.00;;;;;12.82;56.19;98899.75;5001218;28;45340;-49
2022/04/07 07:38:01;;;;;;;;;2.75;1.00;;;;;12.83;56.39;98881.19;5006840;28;46887;-47
2022/04/07 07:40:32;;;;;;;;;1.00;1.00;;;;;12.83;56.40;98889.09;5001468;28;45538;-51
2022/04/07 07:43:00;;;;;;;;;1.25;1.25;;;;;12.87;56.41;98892.44;5010081;28;45245;-49
2022/04/07 07:45:27;;;;;;;;;2.50;0.75;;;;;12.90;55.91;98897.53;5005787;28;45246;-50
2022/04/07 07:47:53;;;;;;;;;0.00;0.00;;;;;12.91;55.69;98901.88;5010613;28;46104;-49
2022/04/07 07:50:19;;;;;;;;;2.00;0.00;;;;;12.88;56.38;98874.81;5006101;28;45354;-50
2022/04/07 07:52:44;;;;;;;;;0.00;0.00;;;;;12.91;55.33;98862.34;5011216;28;45385;-48
2022/04/07 07:55:09;;;;;;;;;1.25;0.00;;;;;12.90;56.29;98863.25;5005907;28;45488;-46
2022/04/07 07:57:35;;;;;;;;;0.25;0.00;;;;;12.95;56.96;98837.50;5008228;28;46500;-52
2022/04/07 08:00:00;;;;;;;;;0.00;0.00;;;;;12.97;55.50;98854.09;5005193;28;45299;-48
2022/04/07 08:02:26;;;;;;;;;0.00;0.00;;;;;12.97;56.26;98858.53;5011002;28;45454;-49
2022/04/07 08:04:52;;;;;;;;;0.75;0.75;;;;;13.04;55.64;98857.25;5005941;28;45218;-51
2022/04/07 08:07:18;;;;;;;;;0.00;0.00;;;;;13.00;56.68;98856.59;5010755;28;46022;-51
2022/04/07 08:09:43;;;;;;;;;0.00;0.00;;;;;13.06;55.31;98887.03;5004957;28;45337;-49
2022/04/07 08:12:10;;;;;;;;;0.50;0.50;;;;;13.10;56.12;98864.81;5005525;28;45443;-53
2022/04/07 08:14:35;;;;;;;;;1.25;1.00;;;;;13.11;56.67;98871.81;5005455;28;45511;-50
2022/04/07 08:17:01;;;;;;;;;0.00;0.00;;;;;13.13;56.58;98843.56;5011067;28;45222;-46
2022/04/07 08:19:27;;;;;;;;;0.75;0.00;;;;;13.15;56.19;98875.13;5005620;28;45338;-50
2022/04/07 08:21:52;;;;;;;;;0.00;0.00;;;;;13.15;56.63;98883.03;5010481;28;45450;-52
2022/04/07 08:24:20;;;;;;;;;3.00;0.25;;;;;13.16;56.19;98868.94;4996580;28;45736;-53
2022/04/07 08:26:46;;;;;;;;;0.00;0.00;;;;;13.18;56.63;98861.75;5010037;28;45442;-48
2022/04/07 08:29:11;;;;;;;;;0.50;0.50;;;;;13.20;55.30;98849.34;5013482;28;45418;-50
2022/04/07 08:31:37;;;;;;;;;0.00;0.00;;;;;13.25;56.14;98860.50;5006829;28;45287;-50
2022/04/07 08:34:03;;;;;;;;;0.50;0.00;;;;;13.29;56.91;98879.66;5003546;28;45526;-49
2022/04/07 08:36:28;;;;;;;;;0.00;0.00;;;;;13.34;56.85;98851.22;5022203;28;45937;-51
2022/04/07 08:38:54;;;;;;;;;0.50;0.50;;;;;13.43;56.63;98848.13;5019348;28;45231;-50
2022/04/07 08:41:21;;;;;;;;;0.00;0.00;;;;;13.45;56.49;98834.84;5021488;28;45810;-48
2022/04/07 08:43:46;;;;;;;;;0.00;0.00;;;;;13.51;56.97;98860.88;5022381;28;45641;-48
2022/04/07 08:46:13;;;;;;;;;0.00;0.00;;;;;13.61;55.87;98846.22;5006755;28;47150;-51
2022/04/07 08:48:43;;;;;;;;;0.25;0.00;;;;;13.67;54.07;98826.53;5000926;28;45414;-50
2022/04/07 08:51:12;;;;;;;;;0.50;0.00;;;;;13.75;56.46;98853.34;5014755;28;45205;-50
2022/04/07 08:53:39;;;;;;;;;0.00;0.00;;;;;13.84;54.67;98840.56;5018902;28;45629;-50
2022/04/07 08:56:06;;;;;;;;;0.50;0.00;;;;;13.89;55.86;98834.06;5020949;28;46064;-50
2022/04/07 08:58:32;;;;;;;;;0.00;0.00;;;;;13.96;55.07;98845.97;5016429;28;45433;-52
2022/04/07 09:00:59;;;;;;;;;0.00;0.00;;;;;14.00;54.96;98829.94;5011014;28;45376;-51
2022/04/07 09:03:25;;;;;;;;;0.00;0.00;;;;;14.06;55.73;98848.06;5026387;28;45275;-53
2022/04/07 09:05:59;;;;;;;;;0.00;0.00;;;;;14.14;54.30;98843.19;5021831;28;45360;-52
2022/04/07 09:08:32;;;;;;;;;0.00;0.00;;;;;14.18;55.42;98847.34;5022059;28;45436;-52
2022/04/07 09:11:00;;;;;;;;;1.00;0.00;;;;;14.27;54.58;98861.81;5021497;28;45376;-52
2022/04/07 09:13:34;;;;;;;;;0.25;0.25;;;;;14.33;55.17;98868.53;5020744;28;45354;-48
2022/04/07 09:16:02;;;;;;;;;0.00;0.00;;;;;14.41;55.48;98851.25;5020433;28;47314;-50
2022/04/07 09:18:27;;;;;;;;;0.00;0.00;;;;;14.38;55.56;98838.25;5020761;28;45345;-50
2022/04/07 09:20:53;;;;;;;;;0.00;0.00;;;;;14.48;55.40;98878.19;5021818;28;45633;-51
2022/04/07 09:23:18;;;;;;;;;1.00;0.00;;;;;14.46;55.42;98854.50;5022072;28;45399;-52
2022/04/07 09:25:47;;;;;;;;;0.00;0.00;;;;;14.52;54.28;98845.31;5009360;28;45786;-52
2022/04/07 09:28:23;;;;;;;;;0.00;0.00;;;;;14.55;55.68;98857.50;5021679;28;45399;-48
2022/04/07 09:30:49;;;;;;;;;0.50;0.50;;;;;14.58;53.72;98874.03;5020462;28;45369;-51
2022/04/07 09:33:25;;;;;;;;;0.25;0.25;;;;;14.55;54.73;98842.53;5016975;28;45237;-51
2022/04/07 09:36:02;;;;;;;;;0.75;0.00;;;;;14.59;53.51;98857.25;5016481;28;45232;-51
2022/04/07 09:38:30;;;;;;;;;0.00;0.00;;;;;14.59;54.93;98829.94;5011727;28;45476;-49
2022/04/07 09:41:05;;;;;;;;;0.50;0.00;;;;;14.59;55.20;98828.16;5021368;28;45352;-52
2022/04/07 09:43:45;;;;;;;;;0.00;0.00;;;;;14.66;55.28;98839.22;5020274;28;45439;-53
2022/04/07 09:46:11;;;;;;;;;0.00;0.00;;;;;14.70;55.41;98850.47;5020381;28;46317;-50
2022/04/07 09:48:37;;;;;;;;;0.50;0.50;;;;;14.77;54.73;98843.88;5021276;28;45424;-53
2022/04/07 09:51:06;;;;;;;;;0.50;0.50;;;;;14.80;54.04;98841.03;5021566;28;45325;-48
2022/04/07 09:53:36;;;;;;;;;0.00;0.00;;;;;14.82;55.10;98870.88;5021396;28;45345;-52
2022/04/07 09:56:02;;;;;;;;;0.00;0.00;;;;;14.89;54.73;98884.56;5021087;28;45570;-51
2022/04/07 09:58:28;;;;;;;;;0.25;0.00;;;;;14.96;54.29;98848.84;5019768;28;45310;-52
2022/04/07 10:00:54;;;;;;;;;0.00;0.00;;;;;15.01;53.98;98844.13;5021388;28;45375;-50
2022/04/07 10:03:19;;;;;;;;;0.25;0.00;;;;;15.05;54.80;98879.19;5021089;28;45410;-52
2022/04/07 10:05:45;;;;;;;;;0.00;0.00;;;;;15.11;53.26;98861.13;5019958;28;47041;-52
2022/04/07 10:08:11;;;;;;;;;0.75;0.00;;;;;15.14;53.43;98864.53;5021024;28;45390;-52
2022/04/07 10:10:38;;;;;;;;;0.00;0.00;;;;;15.22;53.19;98851.66;5020833;28;45182;-53
2022/04/07 10:13:04;;;;;;;;;0.00;0.00;;;;;15.24;52.89;98855.06;5020945;28;45249;-49
2022/04/07 10:15:30;;;;;;;;;0.00;0.00;;;;;15.24;52.77;98845.34;5020903;28;46320;-53
2022/04/07 10:17:58;;;;;;;;;1.75;0.00;;;;;15.28;52.75;98849.47;5020843;28;45401;-50
2022/04/07 10:20:33;;;;;;;;;0.25;0.00;;;;;15.33;54.39;98848.31;5021144;28;45264;-51
2022/04/07 10:23:03;;;;;;;;;0.00;0.00;;;;;15.35;54.87;98851.75;5020999;28;45459;-51
2022/04/07 10:25:31;;;;;;;;;0.00;0.00;;;;;15.37;54.76;98861.28;5005808;28;46154;-52
2022/04/07 10:28:02;;;;;;;;;0.00;0.00;;;;;15.37;54.89;98855.13;5012625;28;45373;-51
2022/04/07 10:30:32;;;;;;;;;1.75;0.00;;;;;15.42;53.68;98937.72;5020785;28;45228;-51
2022/04/07 10:32:58;;;;;;;;;0.00;0.00;;;;;15.33;52.30;98925.91;5020701;28;45349;-53
2022/04/07 10:35:27;;;;;;;;;0.00;0.00;;;;;15.16;54.57;98934.91;5020575;28;45320;-49
2022/04/07 10:37:52;;;;;;;;;0.00;0.00;;;;;14.88;55.50;98918.09;5006359;28;46447;-48
2022/04/07 10:40:50;;;;;;;;;0.00;0.00;;;;;14.76;54.22;98945.28;4988106;28;45288;-50
2022/04/07 10:43:27;;;;;;;;;0.00;0.00;;;;;14.54;55.12;98940.38;5001025;28;45340;-53
2022/04/07 10:46:05;;;;;;;;;0.00;0.00;;;;;14.39;55.27;98956.22;5003690;28;45418;-53
2022/04/07 10:48:34;;;;;;;;;0.00;0.00;;;;;14.22;54.98;98973.03;5003553;28;45294;-48
2022/04/07 10:51:11;;;;;;;;;0.00;0.00;;;;;14.05;56.28;98957.28;5009129;28;45232;-50
2022/04/07 10:54:00;;;;;;;;;0.00;0.00;;;;;13.89;56.22;98954.69;4997215;28;45385;-52
2022/04/07 10:56:38;;;;;;;;;1.00;0.00;;;;;13.87;56.15;98960.03;4999768;28;47190;-50
2022/04/07 10:59:30;;;;;;;;;0.75;0.00;;;;;13.84;56.02;98968.13;5007235;28;45297;-51
2022/04/07 11:01:56;;;;;;;;;0.00;0.00;;;;;13.78;56.26;98968.47;5009654;28;45326;-52
2022/04/07 11:04:22;;;;;;;;;0.75;0.00;;;;;13.78;56.29;98976.41;5004995;28;45304;-49
2022/04/07 11:09:57;;;;;;;;;0.00;0.00;;;;;13.82;55.28;98985.84;5006977;28;45316;-51
2022/04/07 11:12:28;;;;;;;;;0.00;0.00;;;;;13.80;56.27;98993.84;4999394;28;45351;-50
2022/04/07 11:15:16;;;;;;;;;0.75;0.00;;;;;13.79;55.61;98973.66;5000272;28;45432;-51
2022/04/07 11:17:41;;;;;;;;;0.00;0.00;;;;;13.90;55.17;98977.47;4998753;28;46298;-50
2022/04/07 11:20:20;;;;;;;;;0.00;0.00;;;;;13.94;55.09;98976.41;4999048;28;45467;-51
2022/04/07 11:22:55;;;;;;;;;0.25;0.00;;;;;14.02;56.25;98984.72;4999207;28;45481;-52
2022/04/07 11:25:24;;;;;;;;;0.00;0.00;;;;;14.15;56.61;98990.19;4996223;28;45358;-52
2022/04/07 11:28:15;;;;;;;;;0.75;0.75;;;;;14.27;55.31;98985.97;5028213;28;45531;-49
2022/04/07 11:30:48;;;;;;;;;0.00;0.00;;;;;14.38;55.32;98999.44;5027231;28;45395;-52
2022/04/07 11:33:28;;;;;;;;;0.75;0.00;;;;;14.44;53.47;99003.53;4998786;28;45443;-48
2022/04/07 11:36:00;;;;;;;;;0.25;0.25;;;;;14.46;53.90;99006.91;5012049;28;45400;-50
2022/04/07 11:38:27;;;;;;;;;1.00;0.00;;;;;14.55;53.45;98995.81;5033175;28;45321;-52
2022/04/07 11:40:58;;;;;;;;;0.25;0.25;;;;;14.57;54.34;99012.41;5015361;28;45342;-55
2022/04/07 11:43:24;;;;;;;;;0.00;0.00;;;;;14.65;53.93;99014.63;5011486;28;45472;-51
2022/04/07 11:45:49;;;;;;;;;0.00;0.00;;;;;14.77;53.85;99026.31;5016547;28;45314;-49
2022/04/07 11:48:14;;;;;;;;;0.00;0.00;;;;;14.85;54.13;99024.03;5011347;28;46036;-52
2022/04/07 11:50:40;;;;;;;;;0.00;0.00;;;;;14.90;54.59;99021.97;5003298;28;46660;-49
2022/04/07 11:53:05;;;;;;;;;0.00;0.00;;;;;15.00;53.13;99042.59;5005111;28;45243;-53
2022/04/07 11:55:31;;;;;;;;;0.00;0.00;;;;;15.04;53.77;99037.06;5018691;28;45448;-53
2022/04/07 11:58:00;;;;;;;;;0.00;0.00;;;;;15.08;53.65;99040.34;5017259;28;45480;-52
2022/04/07 12:00:32;;;;;;;;;1.00;0.00;;;;;15.13;53.60;99035.63;5011672;28;45256;-47
2022/04/07 12:03:05;;;;;;;;;0.00;0.00;;;;;15.23;53.58;99047.38;5007236;28;45406;-53
2022/04/07 12:05:36;;;;;;;;;0.00;0.00;;;;;15.36;53.73;99041.34;5018896;28;45327;-53
2022/04/07 12:08:12;;;;;;;;;0.00;0.00;;;;;15.46;54.67;99049.53;5019160;28;46361;-50
2022/04/07 12:10:44;;;;;;;;;0.50;0.50;;;;;15.59;54.23;99040.75;5020544;28;45422;-53
2022/04/07 12:13:10;;;;;;;;;0.00;0.00;;;;;15.65;54.04;99047.47;5005148;28;45600;-50
2022/04/07 12:15:36;;;;;;;;;1.75;0.00;;;;;15.76;53.22;99066.19;5022547;28;45515;-50
2022/04/07 12:18:02;;;;;;;;;0.25;0.00;;;;;15.81;53.75;99068.56;5022055;28;45271;-53
2022/04/07 12:20:29;;;;;;;;;0.00;0.00;;;;;15.90;53.28;99070.66;5022505;28;45405;-52
2022/04/07 12:23:08;;;;;;;;;0.50;0.00;;;;;16.01;52.61;99071.78;5021514;28;45499;-50
2022/04/07 12:25:39;;;;;;;;;0.00;0.00;;;;;16.10;52.39;99084.44;5006615;28;45254;-52
2022/04/07 12:28:32;;;;;;;;;0.00;0.00;;;;;16.08;52.69;99059.84;5015570;28;46330;-50
2022/04/07 12:30:57;;;;;;;;;0.25;0.25;;;;;16.28;52.04;99090.38;5011053;28;45565;-51
2022/04/07 12:33:44;;;;;;;;;0.00;0.00;;;;;16.38;52.23;99086.16;5022555;28;45332;-52
2022/04/07 12:36:36;;;;;;;;;0.50;0.50;;;;;16.49;52.06;99074.00;5023409;28;45604;-51
2022/04/07 12:39:10;;;;;;;;;1.75;0.00;;;;;16.67;51.99;99095.84;5000605;28;46242;-51
2022/04/07 12:41:41;;;;;;;;;1.50;0.25;;;;;16.82;52.20;99110.75;5021106;28;45268;-51
2022/04/07 12:44:09;;;;;;;;;0.00;0.00;;;;;17.02;52.15;99103.31;5021357;28;45341;-50
2022/04/07 12:46:46;;;;;;;;;1.75;0.50;;;;;17.18;51.68;99093.34;5020823;28;45601;-51
2022/04/07 12:49:12;;;;;;;;;1.00;0.00;;;;;17.31;51.22;99117.25;5020915;28;47386;-52
2022/04/07 12:51:41;;;;;;;;;0.50;0.00;;;;;17.52;51.48;99100.78;5022128;28;45344;-56
2022/04/07 12:54:08;;;;;;;;;2.25;0.00;;;;;17.72;51.51;99118.00;5020752;28;45410;-49
2022/04/07 12:56:33;;;;;;;;;1.25;1.00;;;;;17.88;51.50;99107.16;5022440;28;45195;-52
2022/04/07 12:59:03;;;;;;;;;1.00;0.00;;;;;18.01;51.17;99109.81;5022195;28;45204;-52
2022/04/07 13:01:32;;;;;;;;;2.00;0.00;;;;;18.03;50.85;99126.50;5021003;28;45492;-50
2022/04/07 13:03:59;;;;;;;;;2.00;1.00;;;;;18.00;50.70;99119.59;5020777;28;45322;-50
2022/04/07 13:06:26;;;;;;;;;1.25;1.25;;;;;18.03;50.66;99119.38;5022117;28;45225;-48
2022/04/07 13:08:51;;;;;;;;;1.25;0.00;;;;;18.03;50.40;99121.19;5020190;28;45531;-50
2022/04/07 13:11:35;;;;;;;;;1.00;1.00;;;;;18.01;50.13;99136.38;5037270;28;45362;-57
2022/04/07 13:14:04;;;;;;;;;0.00;0.00;;;;;17.99;49.59;99122.38;5020802;28;45191;-50
2022/04/07 13:16:30;;;;;;;;;3.75;3.00;;;;;17.99;50.07;99123.22;5020632;28;45519;-49
2022/04/07 13:18:57;;;;;;;;;1.00;1.00;;;;;18.06;49.71;99139.56;5021651;28;45372;-54
2022/04/07 13:21:24;;;;;;;;;0.75;0.00;;;;;18.16;49.45;99137.97;5020608;28;45266;-52
2022/04/07 13:23:49;;;;;;;;;0.75;0.25;;;;;18.27;49.47;99131.88;5002659;28;45272;-52
2022/04/07 13:26:14;;;;;;;;;2.25;1.00;;;;;18.30;49.57;99131.69;5012728;28;45407;-53
2022/04/07 13:28:40;;;;;;;;;0.75;0.75;;;;;18.44;49.68;99137.78;5008187;28;46254;-51
2022/04/07 13:31:05;;;;;;;;;1.00;1.00;;;;;18.50;48.82;99142.66;5020343;28;45237;-49
2022/04/07 13:33:31;;;;;;;;;2.75;1.00;;;;;18.54;48.99;99144.16;5021641;28;45349;-51
2022/04/07 13:35:56;;;;;;;;;1.00;1.00;;;;;18.64;48.93;99155.81;5021761;28;45468;-50
2022/04/07 13:38:22;;;;;;;;;1.00;1.00;;;;;18.74;48.90;99158.66;5021410;28;45229;-52
2022/04/07 13:40:49;;;;;;;;;1.50;0.75;;;;;18.78;48.76;99154.81;5020019;28;45352;-52
2022/04/07 13:43:15;;;;;;;;;2.25;1.00;;;;;18.91;48.29;99162.75;5021653;28;45483;-50
2022/04/07 13:45:44;;;;;;;;;1.00;0.00;;;;;18.97;48.12;99209.38;5020171;28;45523;-53
2022/04/07 13:48:13;;;;;;;;;2.00;0.50;;;;;18.98;48.24;99165.81;5020025;28;47142;-52
2022/04/07 13:50:40;;;;;;;;;2.75;0.00;;;;;18.91;47.62;99170.75;5020083;28;45420;-52
2022/04/07 13:53:05;;;;;;;;;1.00;1.00;;;;;18.87;47.98;99177.22;5021354;28;45442;-51
2022/04/07 13:55:32;;;;;;;;;1.75;0.00;;;;;18.81;47.23;99173.19;5021022;28;45455;-51
2022/04/07 13:57:58;;;;;;;;;0.50;0.50;;;;;18.74;47.62;99176.41;5021287;28;47015;-50
2022/04/07 14:00:25;;;;;;;;;0.00;0.00;;;;;18.65;47.12;99189.44;5021374;28;45181;-51
2022/04/07 14:02:51;;;;;;;;;4.75;3.75;;;;;18.63;46.73;99179.88;5020934;28;45263;-51
2022/04/07 14:05:16;;;;;;;;;0.75;0.75;;;;;18.71;47.41;99190.81;5019830;28;45543;-53
2022/04/07 14:07:42;;;;;;;;;1.00;0.00;;;;;18.79;46.97;99188.44;5021130;28;45406;-51
2022/04/07 14:10:10;;;;;;;;;3.00;3.00;;;;;18.95;47.34;99192.66;5020890;28;45305;-53
2022/04/07 14:12:36;;;;;;;;;2.25;1.75;;;;;19.17;47.37;99198.09;5021148;28;45308;-53
2022/04/07 14:15:01;;;;;;;;;0.75;0.75;;;;;19.40;47.74;99208.00;5019645;28;45548;-53
2022/04/07 14:17:27;;;;;;;;;0.25;0.00;;;;;19.59;47.25;99200.28;5021001;28;46254;-49
2022/04/07 14:19:52;;;;;;;;;1.00;1.00;;;;;19.91;47.90;99191.69;5021143;28;45394;-51
2022/04/07 14:22:17;;;;;;;;;2.00;0.50;;;;;20.19;48.10;99184.19;5019541;28;45229;-39
2022/04/07 14:24:43;;;;;;;;;2.50;1.00;;;;;20.50;48.13;99178.22;5007552;28;45354;-63
2022/04/07 14:27:08;;;;;;;;;4.00;3.00;;;;;20.78;47.78;99198.22;4994447;28;45431;-68
2022/04/07 14:29:33;;;;;;;;;1.75;1.75;;;;;21.03;47.67;99186.38;4997370;28;45155;-71
2022/04/07 14:31:59;;;;;;;;;4.00;1.50;;;;;21.22;47.03;99190.16;5001429;28;45247;-66
2022/04/07 14:34:24;;;;;;;;;1.50;0.00;;;;;21.34;46.94;99213.19;4997831;28;45369;-68
2022/04/07 14:36:50;;;;;;;;;3.00;1.50;;;;;21.43;47.11;99228.47;4999951;28;45417;-67
2022/04/07 14:39:15;;;;;;;;;2.25;0.00;;;;;21.42;46.46;99218.75;4991274;28;45564;-70
2022/04/07 14:41:41;;;;;;;;;2.00;1.00;;;;;21.36;45.92;99227.28;4997375;28;45495;-69
2022/04/07 14:44:06;;;;;;;;;0.50;0.50;;;;;21.29;46.19;99242.09;4999988;28;45308;-61
2022/04/07 14:46:31;;;;;;;;;2.50;1.00;;;;;21.14;44.73;99238.88;5000321;28;45436;-65
2022/04/07 14:48:57;;;;;;;;;2.75;1.25;;;;;20.91;45.19;99224.75;4997650;28;45380;-65
2022/04/07 14:51:22;;;;;;;;;1.00;1.00;;;;;20.70;44.71;99248.66;5000588;28;45455;-64
2022/04/07 14:53:47;;;;;;;;;0.25;0.25;;;;;20.42;44.55;99225.00;4998027;28;45360;-65
2022/04/07 14:56:13;;;;;;;;;1.00;1.00;;;;;20.22;43.89;99239.09;4997400;28;45511;-59
2022/04/07 14:58:38;;;;;;;;;1.00;0.00;;;;;20.03;43.69;99221.84;4999370;28;45416;-65
2022/04/07 15:01:04;;;;;;;;;2.50;0.50;;;;;19.91;43.93;99234.34;4999053;28;46485;-65
2022/04/07 15:03:30;;;;;;;;;1.50;1.50;;;;;19.80;43.80;99236.94;4997320;28;46440;-61
2022/04/07 15:05:55;;;;;;;;;0.50;0.00;;;;;19.71;43.73;99250.94;4998943;28;45533;-65
2022/04/07 15:08:21;;;;;;;;;1.75;1.00;;;;;19.63;43.33;99246.22;4997741;28;45301;-65
2022/04/07 15:10:47;;;;;;;;;0.00;0.00;;;;;19.57;43.48;99276.84;4999607;28;46598;-65
2022/04/07 15:13:12;;;;;;;;;0.75;0.75;;;;;19.41;43.82;99244.31;4998968;28;45574;-65
2022/04/07 15:15:38;;;;;;;;;1.25;1.00;;;;;19.29;43.71;99256.72;4997563;28;45949;-65
2022/04/07 15:18:03;;;;;;;;;2.25;2.00;;;;;19.17;43.73;99254.00;4999819;28;45591;-65
2022/04/07 15:20:29;;;;;;;;;0.00;0.00;;;;;19.06;43.02;99267.25;5000154;28;45484;-56
2022/04/07 15:22:54;;;;;;;;;2.50;1.00;;;;;18.96;43.41;99274.22;4996729;28;45659;-64
2022/04/07 15:25:19;;;;;;;;;0.75;0.50;;;;;18.90;42.97;99287.94;5000839;28;45603;-65
2022/04/07 15:27:45;;;;;;;;;0.75;0.75;;;;;18.84;42.73;99284.75;4996511;28;45381;-66
2022/04/07 15:30:13;;;;;;;;;2.75;1.50;;;;;18.86;43.33;99270.50;4998172;28;45939;-64
2022/04/07 15:32:38;;;;;;;;;2.25;0.25;;;;;18.82;43.27;99280.50;4998454;28;45497;-65
2022/04/07 15:35:04;;;;;;;;;1.25;0.00;;;;;18.77;42.23;99291.47;4996407;28;46395;-65
2022/04/07 15:37:32;;;;;;;;;1.75;0.50;;;;;18.73;42.18;99284.69;5000149;28;46387;-65
2022/04/07 15:39:57;;;;;;;;;1.00;1.00;;;;;18.63;41.89;99292.44;4996223;28;45431;-61
2022/04/07 15:42:23;;;;;;;;;3.00;1.75;;;;;18.61;41.98;99286.38;4996516;28;45373;-65
2022/04/07 15:44:48;;;;;;;;;1.50;0.75;;;;;18.51;41.50;99299.50;5002501;28;46110;-61
2022/04/07 15:47:13;;;;;;;;;3.00;1.00;;;;;18.43;41.38;99290.34;5001134;28;45550;-62
2022/04/07 15:49:40;;;;;;;;;2.00;0.50;;;;;18.32;41.71;99309.72;5003750;28;45322;-62
2022/04/07 15:52:10;;;;;;;;;2.50;1.00;;;;;18.18;41.82;99316.81;5002434;28;45477;-61
2022/04/07 15:54:36;;;;;;;;;0.00;0.00;;;;;18.03;40.98;99316.06;5001218;28;46977;-60
2022/04/07 15:57:01;;;;;;;;;0.50;0.50;;;;;17.97;41.17;99321.78;4999968;28;45309;-59
2022/04/07 15:59:27;;;;;;;;;2.75;1.00;;;;;17.94;41.13;99324.66;5004682;28;45257;-60
2022/04/07 16:01:52;;;;;;;;;0.00;0.00;;;;;17.86;40.98;99335.78;4990828;28;45364;-59
2022/04/07 16:04:18;;;;;;;;;1.00;0.50;;;;;17.85;40.70;99342.03;5002123;28;45455;-58
2022/04/07 16:06:43;;;;;;;;;0.00;0.00;;;;;17.83;41.07;99337.78;4991678;28;46321;-60
2022/04/07 16:09:08;;;;;;;;;1.00;1.00;;;;;17.83;40.43;99340.44;4998779;28;45350;-62
2022/04/07 16:11:34;;;;;;;;;2.50;1.00;;;;;17.84;40.80;99356.28;5002251;28;45459;-62
2022/04/07 16:13:59;;;;;;;;;1.00;0.00;;;;;17.77;40.41;99368.25;5001303;28;46972;-61
2022/04/07 16:16:24;;;;;;;;;3.00;2.00;;;;;17.78;40.84;99354.03;4999992;28;45234;-61
2022/04/07 16:18:50;;;;;;;;;0.50;0.25;;;;;17.74;40.37;99378.25;5007382;28;45498;-61
2022/04/07 16:21:15;;;;;;;;;3.50;0.50;;;;;17.65;40.34;99369.09;5022525;28;45488;-57
2022/04/07 16:23:41;;;;;;;;;1.00;0.00;;;;;17.61;40.50;99375.53;5022259;28;45155;-58
2022/04/07 16:26:07;;;;;;;;;1.25;0.00;;;;;17.54;40.47;99381.22;5013006;28;45274;-58
2022/04/07 16:28:32;;;;;;;;;2.00;1.00;;;;;17.47;40.34;99387.03;5009235;28;45358;-58
2022/04/07 16:31:02;;;;;;;;;1.00;1.00;;;;;17.32;40.50;99380.91;5022647;28;45343;-58
2022/04/07 16:33:31;;;;;;;;;3.75;0.25;;;;;17.37;40.38;99400.06;5022396;28;45269;-58
2022/04/07 16:35:57;;;;;;;;;4.00;2.00;;;;;17.35;40.45;99413.44;5021276;28;45511;-57
2022/04/07 16:38:23;;;;;;;;;2.25;2.25;;;;;17.38;40.54;99415.91;5019010;28;45756;-59
2022/04/07 16:40:49;;;;;;;;;2.00;1.00;;;;;17.37;40.46;99400.91;5013729;28;45277;-62